Terminal Aerodrome Forecast
Issued by NWS Kansas City/Pleasant Hill, MO

Home | Current Version | Previous Version | Text Only | Print | Product List | Glossary On
Versions: 1 2 3 4 5 6 7 8 9 10 11 12 13 14 15 16 17 18 19
000
FTUS43 KEAX 261120 AAA
TAFMCI
TAF AMD
KMCI 261120Z 2611/2706 00000KT 5SM BR FEW200
     FM261300 VRB03KT P6SM FEW130
     FM261700 33005KT P6SM SCT140=

USA.gov is the U.S. government's official web portal to all federal, state and local government web resources and services.